Time;durP1;ratioP1;P1;durP2;ratioP2;P2;SDS_P1;SDS_P2;PMS_P1;PMS_P2;Temp;Humidity;BMP_temperature;BMP_pressure;BME280_temperature;BME280_humidity;BME280_pressure;Samples;Min_cycle;Max_cycle;Signal;HPM_P1;HPM_P2
2023/07/23 00:00:47;;;;;;;10.02;6.82;;;;;;;17.30;75.85;100815.34;5036130;28;20186;-82
2023/07/23 00:03:14;;;;;;;7.43;6.05;;;;;;;17.34;74.15;100815.00;5030611;28;20036;-82
2023/07/23 00:05:39;;;;;;;10.48;6.53;;;;;;;17.35;74.47;100802.53;5021017;28;20525;-82
2023/07/23 00:08:05;;;;;;;8.85;6.40;;;;;;;17.41;74.30;100803.91;5034833;28;20029;-82
2023/07/23 00:10:30;;;;;;;8.30;6.38;;;;;;;17.41;74.14;100806.59;5034861;28;20366;-82
2023/07/23 00:12:55;;;;;;;11.57;6.72;;;;;;;17.38;74.74;100798.75;5018996;28;20533;-82
2023/07/23 00:15:21;;;;;;;9.60;6.38;;;;;;;17.31;74.86;100801.03;5023423;28;20038;-82
2023/07/23 00:17:46;;;;;;;10.98;6.18;;;;;;;17.29;74.89;100790.41;5007612;28;20105;-82
2023/07/23 00:20:12;;;;;;;8.88;6.20;;;;;;;17.32;75.67;100792.03;5025801;28;20024;-82
2023/07/23 00:22:38;;;;;;;9.27;5.93;;;;;;;17.31;75.11;100784.97;5020203;28;20096;-82
2023/07/23 00:25:05;;;;;;;8.90;6.28;;;;;;;17.20;75.88;100788.38;5017972;28;20068;-82
2023/07/23 00:27:30;;;;;;;9.45;6.45;;;;;;;17.08;76.07;100774.06;5016864;28;20025;-82
2023/07/23 00:29:56;;;;;;;9.30;6.13;;;;;;;17.14;75.50;100778.13;5029602;28;20716;-82
2023/07/23 00:32:22;;;;;;;9.90;6.43;;;;;;;17.17;75.94;100763.72;5016968;28;20032;-82
2023/07/23 00:34:47;;;;;;;9.50;6.50;;;;;;;17.21;75.06;100762.53;5018763;28;20021;-82
2023/07/23 00:37:13;;;;;;;9.07;6.18;;;;;;;17.21;75.29;100759.88;5019079;28;20021;-82
2023/07/23 00:39:38;;;;;;;10.27;6.05;;;;;;;17.19;75.39;100753.75;5017329;28;20701;-82
2023/07/23 00:42:03;;;;;;;9.85;6.40;;;;;;;17.22;75.98;100753.56;5024981;28;20314;-82
2023/07/23 00:44:29;;;;;;;12.35;6.63;;;;;;;17.18;76.55;100741.38;5021880;28;20080;-82
2023/07/23 00:46:56;;;;;;;9.07;5.80;;;;;;;17.12;75.16;100739.13;5020595;28;20022;-82
2023/07/23 00:49:22;;;;;;;8.73;5.68;;;;;;;17.20;75.34;100740.28;5020225;28;20029;-81
2023/07/23 00:51:47;;;;;;;10.38;6.80;;;;;;;17.23;74.86;100737.41;5015843;28;20099;-82
2023/07/23 00:54:13;;;;;;;8.95;7.03;;;;;;;17.12;75.77;100726.63;5023512;28;20080;-82
2023/07/23 00:56:40;;;;;;;10.50;6.47;;;;;;;17.03;75.98;100722.78;5019208;28;20036;-82
2023/07/23 00:59:06;;;;;;;10.90;7.03;;;;;;;16.94;76.54;100727.91;5022889;28;20030;-82
2023/07/23 01:01:32;;;;;;;9.43;6.28;;;;;;;16.94;75.68;100719.88;5007353;28;20034;-82
2023/07/23 01:03:57;;;;;;;7.82;5.68;;;;;;;17.00;75.32;100712.28;5011698;28;20546;-82
2023/07/23 01:06:26;;;;;;;7.68;6.20;;;;;;;17.02;75.40;100710.38;5020684;28;20042;-82
2023/07/23 01:08:55;;;;;;;9.13;6.38;;;;;;;17.05;74.37;100710.16;5011207;28;20026;-82
2023/07/23 01:11:22;;;;;;;7.25;5.65;;;;;;;17.09;74.80;100703.63;5019927;28;20134;-82
2023/07/23 01:13:51;;;;;;;8.93;5.68;;;;;;;17.02;75.79;100693.47;5017534;28;20021;-82
2023/07/23 01:16:17;;;;;;;10.85;5.93;;;;;;;17.12;75.25;100694.56;5012617;28;20026;-82
2023/07/23 01:18:43;;;;;;;9.20;5.70;;;;;;;17.15;74.49;100689.00;5010456;28;20030;-82
2023/07/23 01:21:10;;;;;;;8.38;5.38;;;;;;;17.16;73.82;100693.41;5010879;28;20512;-82
2023/07/23 01:23:36;;;;;;;12.07;5.80;;;;;;;17.19;74.10;100679.81;5018818;28;20057;-82
2023/07/23 01:26:02;;;;;;;8.93;5.65;;;;;;;17.18;74.31;100677.25;5022550;28;20485;-82
2023/07/23 01:28:27;;;;;;;11.73;6.30;;;;;;;17.11;74.45;100670.63;5019760;28;20068;-82
2023/07/23 01:30:54;;;;;;;8.07;4.97;;;;;;;17.03;74.44;100671.16;5017852;28;20441;-82
2023/07/23 01:33:20;;;;;;;6.68;5.30;;;;;;;17.05;74.31;100674.56;5020173;28;20025;-82
2023/07/23 01:35:46;;;;;;;6.75;5.68;;;;;;;17.08;74.68;100661.88;5016655;28;20033;-82
2023/07/23 01:38:13;;;;;;;8.48;5.85;;;;;;;17.11;74.25;100660.78;5020146;28;20022;-82
2023/07/23 01:40:40;;;;;;;9.82;6.38;;;;;;;17.06;75.02;100649.56;5025510;28;20395;-82
2023/07/23 01:43:06;;;;;;;8.25;5.70;;;;;;;17.14;74.55;100654.38;5020465;28;20090;-82
2023/07/23 01:45:31;;;;;;;8.07;5.68;;;;;;;17.14;74.17;100651.72;5020884;28;20393;-82
2023/07/23 01:47:57;;;;;;;11.88;6.60;;;;;;;17.15;73.90;100651.59;5026207;28;20025;-82
2023/07/23 01:50:22;;;;;;;11.18;5.95;;;;;;;17.18;73.99;100651.38;5024495;28;20440;-82
2023/07/23 01:52:48;;;;;;;10.75;6.30;;;;;;;17.16;73.47;100647.09;5021660;28;20053;-82
2023/07/23 01:55:13;;;;;;;7.32;5.90;;;;;;;17.12;73.91;100632.28;5028987;28;20076;-82
2023/07/23 01:57:38;;;;;;;8.45;6.40;;;;;;;17.13;73.86;100626.81;5016923;28;20468;-82
2023/07/23 02:00:05;;;;;;;7.85;6.07;;;;;;;17.09;74.22;100631.50;5016752;28;20576;-82
2023/07/23 02:02:30;;;;;;;9.50;6.50;;;;;;;17.06;74.19;100630.88;5015091;28;20076;-82
2023/07/23 02:04:55;;;;;;;8.73;6.20;;;;;;;17.11;73.84;100620.72;5021913;28;20033;-82
2023/07/23 02:07:23;;;;;;;10.63;6.60;;;;;;;17.12;73.60;100613.59;5017133;28;20053;-82
2023/07/23 02:09:49;;;;;;;8.88;6.30;;;;;;;17.11;74.39;100609.19;5026597;28;20018;-82
2023/07/23 02:12:15;;;;;;;8.68;6.00;;;;;;;17.10;73.82;100608.31;5019053;28;20055;-82
2023/07/23 02:14:40;;;;;;;9.30;6.68;;;;;;;17.04;74.37;100606.09;5015541;28;20069;-82
2023/07/23 02:17:06;;;;;;;8.63;6.93;;;;;;;16.97;75.51;100610.16;5015341;28;20493;-82
2023/07/23 02:19:31;;;;;;;9.10;6.35;;;;;;;17.01;74.29;100593.81;5026332;28;20026;-82
2023/07/23 02:21:57;;;;;;;8.15;6.65;;;;;;;17.02;74.55;100591.97;5017123;28;20033;-82
2023/07/23 02:24:22;;;;;;;10.77;5.82;;;;;;;17.05;73.97;100587.28;5028289;28;20029;-82
2023/07/23 02:26:47;;;;;;;9.45;6.10;;;;;;;17.05;74.68;100583.75;5023685;28;20094;-82
2023/07/23 02:29:13;;;;;;;10.43;6.78;;;;;;;17.03;74.60;100578.53;5024662;28;20028;-82
2023/07/23 02:31:38;;;;;;;10.60;6.03;;;;;;;17.12;73.08;100577.03;5009783;28;20113;-82
2023/07/23 02:34:03;;;;;;;7.40;6.00;;;;;;;17.06;73.84;100582.78;5012628;28;20037;-82
2023/07/23 02:36:28;;;;;;;9.68;6.30;;;;;;;17.05;75.16;100578.41;5027462;28;20179;-82
2023/07/23 02:38:54;;;;;;;13.13;6.18;;;;;;;17.04;73.39;100579.38;5024444;28;20037;-82
2023/07/23 02:41:19;;;;;;;8.40;6.00;;;;;;;17.01;74.22;100563.56;5016108;28;20115;-82
2023/07/23 02:43:44;;;;;;;7.45;5.72;;;;;;;16.99;74.74;100578.88;5020484;28;20556;-82
2023/07/23 02:46:09;;;;;;;8.48;5.50;;;;;;;16.99;73.19;100576.19;5016271;28;20029;-82
2023/07/23 02:48:35;;;;;;;7.85;5.68;;;;;;;17.04;73.20;100569.56;5021538;28;20091;-82
2023/07/23 02:51:00;;;;;;;10.02;5.80;;;;;;;17.02;73.67;100573.28;5021105;28;20513;-82
2023/07/23 02:53:26;;;;;;;9.32;5.95;;;;;;;17.05;72.94;100565.91;5016728;28;20111;-82
2023/07/23 02:55:52;;;;;;;10.85;6.22;;;;;;;17.05;73.13;100557.91;5018613;28;20084;-82
2023/07/23 02:58:17;;;;;;;7.70;5.45;;;;;;;17.11;72.30;100563.75;5025552;28;20409;-82
2023/07/23 03:00:44;;;;;;;8.68;5.10;;;;;;;17.13;72.65;100562.72;5027409;28;20472;-82
2023/07/23 03:03:09;;;;;;;10.68;5.32;;;;;;;17.13;72.40;100560.03;5012339;28;20057;-82
2023/07/23 03:05:36;;;;;;;9.82;5.60;;;;;;;17.08;71.86;100556.84;5041060;28;20039;-82
2023/07/23 03:08:02;;;;;;;8.70;5.20;;;;;;;17.11;72.13;100550.41;5012107;28;20477;-82
2023/07/23 03:10:28;;;;;;;8.63;5.13;;;;;;;17.16;70.71;100551.81;5034820;28;20025;-82
2023/07/23 03:12:54;;;;;;;6.55;4.97;;;;;;;17.18;70.26;100543.66;5016189;28;20498;-82
2023/07/23 03:15:19;;;;;;;7.32;4.65;;;;;;;17.24;68.89;100548.56;5009717;28;20500;-82
2023/07/23 03:17:44;;;;;;;7.20;4.22;;;;;;;17.30;69.50;100543.66;5013588;28;20178;-82
2023/07/23 03:20:14;;;;;;;6.13;4.40;;;;;;;17.36;68.85;100549.50;5011500;28;20125;-82
2023/07/23 03:22:40;;;;;;;6.30;4.03;;;;;;;17.37;68.48;100538.69;5013400;28;20036;-82
2023/07/23 03:25:05;;;;;;;8.18;4.35;;;;;;;17.38;67.61;100535.03;5020922;28;20041;-82
2023/07/23 03:27:30;;;;;;;9.10;4.75;;;;;;;17.43;67.69;100542.72;5021994;28;20504;-82
2023/07/23 03:29:56;;;;;;;6.15;4.32;;;;;;;17.43;67.10;100546.25;5043565;28;20400;-82
2023/07/23 03:32:21;;;;;;;8.00;4.88;;;;;;;17.47;66.92;100545.06;5012989;28;20029;-82
2023/07/23 03:34:46;;;;;;;5.95;4.00;;;;;;;17.53;66.51;100543.75;5033556;28;20539;-82
2023/07/23 03:37:11;;;;;;;5.93;3.85;;;;;;;17.53;66.47;100544.63;5022125;28;20393;-82
2023/07/23 03:39:37;;;;;;;6.43;3.92;;;;;;;17.54;65.48;100542.81;5025134;28;20030;-82
2023/07/23 03:42:02;;;;;;;6.50;4.32;;;;;;;17.58;65.78;100538.94;5021994;28;20461;-82
2023/07/23 03:44:28;;;;;;;6.32;4.03;;;;;;;17.58;65.47;100538.94;5022044;28;20036;-82
2023/07/23 03:47:06;;;;;;;7.07;4.20;;;;;;;17.61;66.19;100546.72;5018423;28;20021;-82
2023/07/23 03:49:31;;;;;;;5.05;3.88;;;;;;;17.61;64.85;100544.03;5017160;28;20037;-81
2023/07/23 03:51:58;;;;;;;5.18;4.00;;;;;;;17.63;64.57;100544.78;5019109;28;20409;-81
2023/07/23 03:54:23;;;;;;;6.50;4.53;;;;;;;17.64;64.42;100535.81;5015558;28;20033;-82
2023/07/23 03:56:48;;;;;;;5.70;4.05;;;;;;;17.59;64.40;100537.97;5016933;28;20075;-82
2023/07/23 03:59:14;;;;;;;4.90;3.25;;;;;;;17.59;65.05;100541.50;5020930;28;20026;-82
2023/07/23 04:01:39;;;;;;;5.47;3.40;;;;;;;17.64;65.26;100545.66;5011811;28;20014;-82
2023/07/23 04:04:04;;;;;;;7.60;3.95;;;;;;;17.60;65.21;100539.66;5007928;28;20045;-82
2023/07/23 04:06:30;;;;;;;6.03;4.28;;;;;;;17.60;64.94;100540.53;5012538;28;20116;-82
2023/07/23 04:08:55;;;;;;;6.13;3.33;;;;;;;17.62;63.80;100540.41;5016828;28;20029;-82
2023/07/23 04:11:20;;;;;;;5.30;3.60;;;;;;;17.66;64.35;100546.38;5021121;28;20029;-82
2023/07/23 04:13:48;;;;;;;5.95;3.65;;;;;;;17.62;63.61;100537.72;5025610;28;20081;-82
2023/07/23 04:16:13;;;;;;;6.13;3.50;;;;;;;17.67;63.85;100540.91;5012540;28;20029;-82
2023/07/23 04:18:49;;;;;;;7.63;3.72;;;;;;;17.70;63.83;100539.84;5027146;28;20031;-81
2023/07/23 04:21:18;;;;;;;6.93;3.65;;;;;;;17.70;63.42;100546.03;5019827;28;20386;-82
2023/07/23 04:23:47;;;;;;;6.15;3.63;;;;;;;17.75;63.57;100549.25;5019585;28;20034;-82
2023/07/23 04:26:12;;;;;;;6.03;3.47;;;;;;;17.74;63.19;100536.00;5015792;28;20037;-82
2023/07/23 04:28:38;;;;;;;8.40;4.45;;;;;;;17.80;63.42;100546.22;5011294;28;20029;-81
2023/07/23 04:31:03;;;;;;;7.07;3.72;;;;;;;17.77;62.59;100544.66;5012835;28;20483;-82
2023/07/23 04:33:28;;;;;;;8.63;3.53;;;;;;;17.84;62.69;100545.03;5008390;28;20177;-82
2023/07/23 04:35:53;;;;;;;4.32;3.20;;;;;;;17.89;62.98;100552.72;5021410;28;20033;-82
2023/07/23 04:38:19;;;;;;;5.70;3.70;;;;;;;17.93;62.41;100547.00;5029596;28;20060;-81
2023/07/23 04:40:46;;;;;;;6.65;3.30;;;;;;;17.93;62.09;100538.13;5017098;28;20028;-81
2023/07/23 04:43:12;;;;;;;7.45;3.33;;;;;;;17.94;62.19;100538.00;5020995;28;20075;-81
2023/07/23 04:45:38;;;;;;;4.78;3.55;;;;;;;18.01;62.27;100549.13;5023001;28;20106;-81
2023/07/23 04:48:03;;;;;;;6.10;3.47;;;;;;;18.03;61.64;100545.34;5017853;28;20037;-81
2023/07/23 04:50:28;;;;;;;7.55;3.63;;;;;;;18.03;62.03;100541.81;5016951;28;20030;-81
2023/07/23 04:52:54;;;;;;;4.05;3.38;;;;;;;18.03;61.71;100533.78;5015914;28;20069;-81
2023/07/23 04:55:19;;;;;;;5.47;2.85;;;;;;;18.05;60.52;100540.75;5024267;28;20033;-81
2023/07/23 04:57:44;;;;;;;4.50;3.10;;;;;;;18.07;60.63;100535.28;5025893;28;20442;-81
2023/07/23 05:00:10;;;;;;;8.50;3.60;;;;;;;18.13;61.38;100536.63;5026378;28;20022;-81
2023/07/23 05:02:35;;;;;;;5.10;3.70;;;;;;;18.15;60.59;100538.22;5012522;28;20026;-81
2023/07/23 05:05:01;;;;;;;5.45;3.15;;;;;;;18.19;61.45;100542.38;5021062;28;20083;-82
2023/07/23 05:07:26;;;;;;;7.90;3.30;;;;;;;18.22;61.27;100538.59;5023070;28;20037;-81
2023/07/23 05:09:51;;;;;;;6.35;3.28;;;;;;;18.19;60.94;100538.84;5019130;28;20504;-81
2023/07/23 05:12:16;;;;;;;9.80;3.90;;;;;;;18.15;61.32;100535.53;5020759;28;20021;-81
2023/07/23 05:14:44;;;;;;;6.20;3.20;;;;;;;18.19;61.29;100544.19;5035180;28;20477;-81
2023/07/23 05:17:11;;;;;;;7.05;3.67;;;;;;;18.14;61.80;100535.63;5020050;28;20453;-81
2023/07/23 05:19:36;;;;;;;5.10;3.00;;;;;;;18.11;61.53;100539.41;5029103;28;20566;-81
2023/07/23 05:22:02;;;;;;;4.30;3.42;;;;;;;18.10;61.50;100535.88;5019751;28;20034;-81
2023/07/23 05:24:27;;;;;;;5.50;3.40;;;;;;;18.15;62.07;100551.59;5018721;28;20037;-81
2023/07/23 05:26:52;;;;;;;4.05;3.40;;;;;;;18.08;61.96;100539.63;5032284;28;20061;-81
2023/07/23 05:29:18;;;;;;;7.25;3.47;;;;;;;18.10;61.80;100549.28;5021821;28;20523;-81
2023/07/23 05:31:43;;;;;;;9.00;2.63;;;;;;;18.08;61.87;100540.50;5027156;28;20036;-81
2023/07/23 05:34:08;;;;;;;5.55;3.45;;;;;;;18.03;62.80;100540.00;5021510;28;20052;-81
2023/07/23 05:36:34;;;;;;;4.68;3.45;;;;;;;18.07;62.86;100533.44;5018124;28;20028;-81
2023/07/23 05:38:59;;;;;;;4.10;3.38;;;;;;;18.04;63.17;100547.03;5018426;28;20035;-81
2023/07/23 05:41:24;;;;;;;5.13;3.78;;;;;;;18.00;63.68;100534.00;5018335;28;20062;-81
2023/07/23 05:43:49;;;;;;;5.75;3.88;;;;;;;18.02;63.89;100540.13;5020380;28;20040;-81
2023/07/23 05:46:15;;;;;;;6.20;3.20;;;;;;;18.03;62.96;100531.13;5023355;28;20021;-81
2023/07/23 05:48:41;;;;;;;4.70;3.20;;;;;;;18.04;62.99;100535.50;5019217;28;20400;-81
2023/07/23 05:51:06;;;;;;;4.88;3.20;;;;;;;18.00;62.60;100537.56;5027884;28;20026;-81
2023/07/23 05:53:31;;;;;;;7.43;3.30;;;;;;;18.00;63.70;100532.22;5019142;28;20923;-81
2023/07/23 05:55:56;;;;;;;4.80;3.00;;;;;;;18.00;64.23;100536.69;5017749;28;20038;-81
2023/07/23 05:58:22;;;;;;;5.47;3.25;;;;;;;17.92;64.53;100534.63;5018231;28;20381;-81
2023/07/23 06:00:47;;;;;;;5.10;3.17;;;;;;;17.97;64.03;100542.28;5013927;28;20060;-81
2023/07/23 06:03:13;;;;;;;4.75;3.45;;;;;;;17.98;63.99;100533.28;5011619;28;20028;-81
2023/07/23 06:05:38;;;;;;;6.85;3.17;;;;;;;17.98;63.34;100530.63;5025029;28;20025;-81
2023/07/23 06:08:03;;;;;;;5.15;3.03;;;;;;;17.98;63.12;100528.78;5026985;28;20053;-81
2023/07/23 06:10:29;;;;;;;6.88;3.33;;;;;;;18.05;63.32;100531.88;5023034;28;20025;-81
2023/07/23 06:12:54;;;;;;;4.75;3.20;;;;;;;18.04;63.96;100532.81;5018258;28;20018;-81
2023/07/23 06:15:20;;;;;;;5.03;3.28;;;;;;;18.05;64.32;100526.53;5025170;28;20025;-81
2023/07/23 06:17:45;;;;;;;5.60;3.28;;;;;;;18.11;63.49;100539.41;5013732;28;20117;-81
2023/07/23 06:20:11;;;;;;;7.22;3.33;;;;;;;18.06;64.47;100537.09;5021252;28;20031;-81
2023/07/23 06:22:36;;;;;;;5.28;3.38;;;;;;;18.00;64.69;100540.25;5030680;28;20028;-81
2023/07/23 06:25:01;;;;;;;4.20;3.00;;;;;;;17.85;65.16;100541.38;5030181;28;20408;-81
2023/07/23 06:27:27;;;;;;;6.00;3.33;;;;;;;17.79;65.83;100541.84;5014515;28;20038;-81
2023/07/23 06:29:52;;;;;;;6.00;3.35;;;;;;;17.68;66.34;100541.78;5012476;28;20468;-81
2023/07/23 06:32:17;;;;;;;9.48;3.42;;;;;;;17.61;67.53;100544.03;5023781;28;20047;-81
2023/07/23 06:34:42;;;;;;;4.05;2.80;;;;;;;17.57;67.40;100548.75;5026031;28;20084;-81
2023/07/23 06:37:08;;;;;;;7.22;3.78;;;;;;;17.58;68.85;100550.50;5020552;28;20028;-81
2023/07/23 06:39:33;;;;;;;4.50;3.13;;;;;;;17.60;67.33;100540.53;5016103;28;20018;-81
2023/07/23 06:41:58;;;;;;;6.50;3.17;;;;;;;17.62;67.23;100551.09;5016204;28;20323;-81
2023/07/23 06:44:24;;;;;;;7.88;3.40;;;;;;;17.67;66.93;100554.28;5013258;28;20033;-82
2023/07/23 06:46:49;;;;;;;6.03;2.95;;;;;;;17.77;66.24;100559.84;5026052;28;20040;-81
2023/07/23 06:49:14;;;;;;;7.38;3.42;;;;;;;17.80;66.50;100560.44;5037561;28;20021;-81
2023/07/23 06:51:40;;;;;;;7.38;3.30;;;;;;;17.76;65.63;100561.63;5020494;28;20072;-81
2023/07/23 06:54:05;;;;;;;6.57;3.17;;;;;;;17.84;66.53;100567.28;5023042;28;20469;-82
2023/07/23 06:56:30;;;;;;;5.45;3.50;;;;;;;17.90;66.73;100581.16;5019710;28;20033;-82
2023/07/23 06:58:55;;;;;;;4.95;3.30;;;;;;;17.81;67.12;100569.31;5015401;28;20032;-81
2023/07/23 07:01:22;;;;;;;5.90;3.60;;;;;;;17.79;67.42;100573.94;5012011;28;20021;-81
2023/07/23 07:03:47;;;;;;;4.63;3.63;;;;;;;17.57;69.53;100566.63;5022241;28;20029;-81
2023/07/23 07:06:12;;;;;;;6.68;3.55;;;;;;;17.29;70.71;100573.97;5018162;28;20022;-81
2023/07/23 07:08:37;;;;;;;5.88;3.88;;;;;;;17.13;72.00;100576.06;5028209;28;20560;-81
2023/07/23 07:11:03;;;;;;;6.28;4.10;;;;;;;17.10;73.27;100576.28;5020828;28;20041;-81
2023/07/23 07:13:30;;;;;;;5.78;3.80;;;;;;;17.14;72.86;100568.91;5028400;28;20021;-81
2023/07/23 07:15:55;;;;;;;6.18;4.22;;;;;;;17.02;73.95;100576.84;5014164;28;20049;-81
2023/07/23 07:18:21;;;;;;;7.05;4.22;;;;;;;16.88;75.04;100562.72;5025422;28;20076;-81
2023/07/23 07:20:54;;;;;;;7.05;4.68;;;;;;;16.94;75.82;100573.00;5018723;28;20024;-81
2023/07/23 07:23:19;;;;;;;6.22;4.03;;;;;;;16.93;75.99;100573.97;5025461;28;20035;-81
2023/07/23 07:25:44;;;;;;;10.10;3.78;;;;;;;16.88;76.45;100568.06;5026202;28;20033;-81
2023/07/23 07:28:10;;;;;;;7.65;4.07;;;;;;;16.77;76.88;100567.03;5019824;28;20064;-81
2023/07/23 07:30:39;;;;;;;5.30;3.53;;;;;;;16.88;75.15;100568.06;5011913;28;20030;-81
2023/07/23 07:33:04;;;;;;;7.00;4.38;;;;;;;16.83;76.80;100571.06;5018222;28;20047;-81
2023/07/23 07:35:30;;;;;;;7.25;3.70;;;;;;;16.88;75.79;100568.06;5018881;28;20088;-81
2023/07/23 07:37:55;;;;;;;5.15;4.15;;;;;;;16.82;75.99;100570.22;5016082;28;20772;-81
2023/07/23 07:40:20;;;;;;;6.82;3.97;;;;;;;16.75;76.49;100579.63;5013342;28;20037;-81
2023/07/23 07:42:45;;;;;;;11.07;4.43;;;;;;;16.84;76.87;100562.13;5018499;28;20041;-81
2023/07/23 07:45:11;;;;;;;10.25;4.00;;;;;;;16.87;76.68;100569.91;5013779;28;20041;-82
2023/07/23 07:47:36;;;;;;;6.95;4.07;;;;;;;16.91;76.49;100571.38;5010826;28;20033;-81
2023/07/23 07:50:03;;;;;;;10.60;4.53;;;;;;;17.10;75.86;100565.59;5015805;28;20109;-81
2023/07/23 07:52:28;;;;;;;7.30;4.55;;;;;;;17.12;75.92;100570.84;5020021;28;20043;-82
2023/07/23 07:54:53;;;;;;;5.88;3.88;;;;;;;17.23;74.93;100566.41;5019607;28;20502;-81
2023/07/23 07:57:19;;;;;;;8.32;4.63;;;;;;;17.33;75.09;100572.78;5012355;28;20536;-81
2023/07/23 07:59:44;;;;;;;8.02;4.90;;;;;;;17.46;74.11;100570.09;5015344;28;20084;-81
2023/07/23 08:02:10;;;;;;;6.40;4.43;;;;;;;17.56;74.08;100573.78;5008641;28;20029;-81
2023/07/23 08:04:35;;;;;;;5.57;3.65;;;;;;;17.62;73.23;100577.81;5028967;28;20026;-81
2023/07/23 08:07:01;;;;;;;9.13;4.78;;;;;;;17.42;74.36;100568.59;5026500;28;20071;-81
2023/07/23 08:09:28;;;;;;;9.13;4.88;;;;;;;17.54;74.40;100570.38;5017784;28;20029;-81
2023/07/23 08:11:54;;;;;;;8.73;4.78;;;;;;;17.69;74.23;100571.06;5021483;28;20014;-81
2023/07/23 08:14:20;;;;;;;9.90;4.75;;;;;;;17.74;74.44;100570.75;5022570;28;20029;-81
2023/07/23 08:16:47;;;;;;;9.95;4.57;;;;;;;17.70;75.00;100577.28;5019774;28;20029;-81
2023/07/23 08:19:12;;;;;;;6.35;4.72;;;;;;;17.57;75.37;100571.97;5010204;28;20227;-81
2023/07/23 08:21:38;;;;;;;7.32;4.57;;;;;;;17.56;76.27;100564.91;5019639;28;20039;-81
2023/07/23 08:24:03;;;;;;;5.10;3.78;;;;;;;17.62;75.78;100572.47;5027383;28;20029;-81
2023/07/23 08:26:32;;;;;;;6.78;4.18;;;;;;;17.67;75.85;100564.13;5014625;28;20063;-81
2023/07/23 08:29:04;;;;;;;6.00;3.70;;;;;;;17.82;75.80;100569.22;5017057;28;20043;-85
2023/07/23 08:31:29;;;;;;;4.97;3.63;;;;;;;18.03;75.36;100571.25;5009410;28;20060;-83
2023/07/23 08:33:55;;;;;;;4.13;3.42;;;;;;;18.13;74.62;100580.28;5023028;28;20059;-81
2023/07/23 08:36:21;;;;;;;6.25;3.53;;;;;;;18.15;75.11;100567.66;5016348;28;20029;-81
2023/07/23 08:38:46;;;;;;;4.28;2.85;;;;;;;18.16;74.07;100574.69;5019790;28;20036;-81
2023/07/23 08:41:30;;;;;;;4.53;2.85;;;;;;;18.17;74.49;100568.38;4985739;28;1096699;-81
2023/07/23 08:44:34;;;;;;;4.13;2.75;;;;;;;18.24;74.26;100560.75;5019910;28;20042;-81
2023/07/23 08:47:10;;;;;;;5.43;2.80;;;;;;;18.30;73.79;100565.63;5017465;28;20037;-81
2023/07/23 08:49:39;;;;;;;4.93;3.20;;;;;;;18.08;74.52;100567.25;5014898;28;20072;-81
2023/07/23 08:52:05;;;;;;;4.93;2.30;;;;;;;18.01;74.40;100567.84;5024496;28;20022;-81
2023/07/23 08:54:32;;;;;;;3.65;2.83;;;;;;;18.15;74.97;100570.31;5010797;28;20121;-81
2023/07/23 08:56:58;;;;;;;5.97;2.70;;;;;;;18.21;73.96;100569.00;5014277;28;20505;-81
2023/07/23 08:59:26;;;;;;;2.78;2.55;;;;;;;18.07;73.93;100573.56;5023893;28;20107;-81
2023/07/23 09:01:53;;;;;;;4.70;2.78;;;;;;;17.99;74.94;100559.91;5016222;28;20021;-81
2023/07/23 09:04:18;;;;;;;3.05;2.28;;;;;;;18.02;75.84;100572.22;5024851;28;20040;-81
2023/07/23 09:06:44;;;;;;;4.82;2.88;;;;;;;18.07;75.30;100554.84;5028279;28;20491;-81
2023/07/23 09:09:11;;;;;;;2.92;2.58;;;;;;;18.25;76.00;100576.69;5017741;28;20542;-81
2023/07/23 09:11:37;;;;;;;2.70;2.30;;;;;;;18.20;76.04;100572.66;5032895;28;20021;-81
2023/07/23 09:14:07;;;;;;;4.63;2.33;;;;;;;18.07;76.61;100570.91;5020161;28;20029;-81
2023/07/23 09:16:37;;;;;;;3.03;2.72;;;;;;;18.08;76.57;100575.28;5036482;28;20511;-81
2023/07/23 09:19:02;;;;;;;3.45;2.08;;;;;;;18.14;77.27;100578.44;5028363;28;20496;-81
2023/07/23 09:21:28;;;;;;;3.42;2.65;;;;;;;18.16;77.14;100574.69;5010311;28;20034;-81
2023/07/23 09:23:55;;;;;;;2.90;2.60;;;;;;;18.15;78.44;100567.66;5030208;28;20043;-81
2023/07/23 09:26:24;;;;;;;2.95;2.63;;;;;;;18.01;78.25;100573.19;5021499;28;20768;-81
2023/07/23 09:28:51;;;;;;;3.38;2.90;;;;;;;17.91;78.92;100570.38;5036846;28;20056;-81
2023/07/23 09:31:29;;;;;;;2.17;1.98;;;;;;;18.08;78.88;100587.78;5009342;28;20046;-80
2023/07/23 09:33:56;;;;;;;3.30;2.17;;;;;;;18.06;79.56;100581.72;5015255;28;20029;-81
2023/07/23 09:36:23;;;;;;;3.47;2.20;;;;;;;17.91;80.17;100580.22;5023430;28;20029;-81
2023/07/23 09:39:03;;;;;;;2.28;1.92;;;;;;;18.05;79.18;100591.56;5034090;28;20029;-81
2023/07/23 09:41:33;;;;;;;3.38;2.38;;;;;;;17.91;79.12;100588.22;5016975;28;20069;-81
2023/07/23 09:44:00;;;;;;;3.67;2.38;;;;;;;17.82;80.95;100579.06;5024022;28;20547;-81
2023/07/23 09:46:26;;;;;;;3.95;2.63;;;;;;;17.71;81.43;100581.63;5019525;28;20037;-81
2023/07/23 09:48:51;;;;;;;3.42;2.80;;;;;;;17.68;81.48;100581.88;5028859;28;20040;-82
2023/07/23 09:51:17;;;;;;;4.68;2.85;;;;;;;17.76;81.09;100583.03;5020808;28;20120;-82
2023/07/23 09:53:45;;;;;;;3.30;2.33;;;;;;;17.84;81.46;100586.00;5027967;28;20028;-82
2023/07/23 09:56:15;;;;;;;3.60;2.55;;;;;;;17.71;81.72;100576.28;5034212;28;20026;-82
2023/07/23 09:58:43;;;;;;;3.50;2.45;;;;;;;17.78;82.77;100585.63;5021387;28;20026;-82
2023/07/23 10:01:09;;;;;;;3.63;2.00;;;;;;;17.86;81.77;100583.22;5027304;28;20148;-81
2023/07/23 10:03:36;;;;;;;3.58;2.45;;;;;;;17.84;82.18;100588.66;5032642;28;20468;-82
2023/07/23 10:06:02;;;;;;;2.83;2.17;;;;;;;17.78;81.52;100593.63;5023449;28;20029;-81
2023/07/23 10:08:28;;;;;;;3.50;2.45;;;;;;;17.79;81.84;100595.34;5024301;28;20507;-82
2023/07/23 10:10:54;;;;;;;4.05;2.50;;;;;;;17.75;82.22;100591.19;5019318;28;20034;-82
2023/07/23 10:13:19;;;;;;;3.35;2.20;;;;;;;17.68;81.86;100596.09;5028988;28;20104;-82
2023/07/23 10:15:46;;;;;;;3.38;2.42;;;;;;;17.65;81.90;100590.97;5037693;28;20477;-82
2023/07/23 10:18:13;;;;;;;2.92;2.47;;;;;;;17.84;81.44;100595.84;5029476;28;20085;-82
2023/07/23 10:20:39;;;;;;;3.53;2.20;;;;;;;17.81;80.83;100596.94;5026596;28;20278;-82
2023/07/23 10:23:05;;;;;;;2.22;1.67;;;;;;;17.80;81.62;100597.88;5029636;28;20040;-82
2023/07/23 10:25:32;;;;;;;2.38;1.88;;;;;;;17.88;81.01;100594.66;5021485;28;20197;-82
2023/07/23 10:28:06;;;;;;;2.88;2.25;;;;;;;17.91;81.63;100604.28;5026547;28;20078;-82
2023/07/23 10:30:42;;;;;;;2.70;2.08;;;;;;;17.95;81.53;100598.59;5020325;28;20033;-82
2023/07/23 10:33:10;;;;;;;2.95;2.08;;;;;;;17.90;81.33;100605.22;5017249;28;20084;-81
2023/07/23 10:35:54;;;;;;;2.83;2.47;;;;;;;17.97;81.97;100606.50;5020444;28;20025;-82
2023/07/23 10:38:38;;;;;;;3.53;2.28;;;;;;;18.01;81.78;100607.97;5024479;28;20017;-82
2023/07/23 10:41:04;;;;;;;3.17;1.55;;;;;;;17.96;79.79;100608.31;5018519;28;20045;-82
2023/07/23 10:43:40;;;;;;;4.60;2.20;;;;;;;17.89;80.96;100609.72;5025265;28;20037;-82
2023/07/23 10:46:08;;;;;;;3.08;2.42;;;;;;;17.89;81.20;100604.38;5019662;28;20033;-82
2023/07/23 10:48:44;;;;;;;2.88;2.35;;;;;;;18.01;81.43;100608.81;5015239;28;20029;-82
2023/07/23 10:51:12;;;;;;;2.25;2.03;;;;;;;17.99;81.37;100593.84;5027770;28;20033;-82
2023/07/23 10:53:54;;;;;;;3.45;2.50;;;;;;;18.02;81.33;100601.66;5016916;28;20097;-81
2023/07/23 10:56:28;;;;;;;2.60;2.22;;;;;;;18.12;81.19;100607.16;5032204;28;20519;-81
2023/07/23 10:58:58;;;;;;;2.53;2.30;;;;;;;18.02;81.56;100597.16;5018971;28;20041;-82
2023/07/23 11:01:25;;;;;;;4.72;2.58;;;;;;;18.17;80.95;100603.16;5021516;28;20035;-81
2023/07/23 11:03:57;;;;;;;3.55;2.60;;;;;;;18.25;80.52;100605.25;5042572;28;20030;-82
2023/07/23 11:06:31;;;;;;;2.70;2.30;;;;;;;18.35;79.96;100601.75;5031589;28;20179;-81
2023/07/23 11:09:01;;;;;;;3.63;2.92;;;;;;;18.49;80.14;100597.16;5016662;28;20555;-81
2023/07/23 11:11:40;;;;;;;3.08;2.67;;;;;;;18.57;80.05;100600.13;5021971;28;20030;-81
2023/07/23 11:14:17;;;;;;;3.30;2.30;;;;;;;18.83;78.32;100595.41;5012096;28;20033;-81
2023/07/23 11:16:43;;;;;;;4.18;2.70;;;;;;;18.91;79.01;100603.72;5020844;28;20040;-81
2023/07/23 11:19:09;;;;;;;4.00;2.83;;;;;;;18.99;78.09;100590.56;5018247;28;20045;-81
2023/07/23 11:21:46;;;;;;;3.47;2.85;;;;;;;19.25;77.99;100595.66;5021703;28;20405;-81